sensor_id;sensor_type;location;lat;lon;timestamp;P1;durP1;ratioP1;P2;durP2;ratioP2
65393;SDS011;52002;49.760;6.512;2023-08-17T00:02:17;4.40;;;2.70;;
65393;SDS011;52002;49.760;6.512;2023-08-17T00:04:43;3.60;;;2.60;;
65393;SDS011;52002;49.760;6.512;2023-08-17T00:07:08;7.70;;;3.10;;
65393;SDS011;52002;49.760;6.512;2023-08-17T00:09:33;3.30;;;2.20;;
65393;SDS011;52002;49.760;6.512;2023-08-17T00:11:59;3.30;;;2.30;;
65393;SDS011;52002;49.760;6.512;2023-08-17T00:14:24;5.30;;;1.90;;
65393;SDS011;52002;49.760;6.512;2023-08-17T00:16:50;4.40;;;1.70;;
65393;SDS011;52002;49.760;6.512;2023-08-17T00:19:16;9.30;;;2.00;;
65393;SDS011;52002;49.760;6.512;2023-08-17T00:21:41;2.00;;;1.60;;
65393;SDS011;52002;49.760;6.512;2023-08-17T00:24:07;2.80;;;1.50;;
65393;SDS011;52002;49.760;6.512;2023-08-17T00:26:33;2.70;;;1.50;;
65393;SDS011;52002;49.760;6.512;2023-08-17T00:28:58;3.50;;;1.80;;
65393;SDS011;52002;49.760;6.512;2023-08-17T00:31:23;6.40;;;1.90;;
65393;SDS011;52002;49.760;6.512;2023-08-17T00:33:48;5.10;;;1.60;;
65393;SDS011;52002;49.760;6.512;2023-08-17T00:36:14;2.50;;;1.90;;
65393;SDS011;52002;49.760;6.512;2023-08-17T00:38:39;2.60;;;1.80;;
65393;SDS011;52002;49.760;6.512;2023-08-17T00:41:04;2.90;;;1.90;;
65393;SDS011;52002;49.760;6.512;2023-08-17T00:43:30;2.30;;;1.70;;
65393;SDS011;52002;49.760;6.512;2023-08-17T00:45:55;5.50;;;1.70;;
65393;SDS011;52002;49.760;6.512;2023-08-17T00:48:21;4.10;;;1.90;;
65393;SDS011;52002;49.760;6.512;2023-08-17T00:50:47;6.10;;;2.00;;
65393;SDS011;52002;49.760;6.512;2023-08-17T00:53:14;4.80;;;1.90;;
65393;SDS011;52002;49.760;6.512;2023-08-17T00:55:41;3.40;;;1.80;;
65393;SDS011;52002;49.760;6.512;2023-08-17T00:58:07;5.00;;;1.70;;
65393;SDS011;52002;49.760;6.512;2023-08-17T01:00:33;2.80;;;1.30;;
65393;SDS011;52002;49.760;6.512;2023-08-17T01:02:59;4.00;;;1.30;;
65393;SDS011;52002;49.760;6.512;2023-08-17T01:05:24;5.20;;;1.50;;
65393;SDS011;52002;49.760;6.512;2023-08-17T01:07:50;9.00;;;2.00;;
65393;SDS011;52002;49.760;6.512;2023-08-17T01:10:15;2.80;;;1.50;;
65393;SDS011;52002;49.760;6.512;2023-08-17T01:15:40;3.00;;;2.20;;
65393;SDS011;52002;49.760;6.512;2023-08-17T01:20:47;2.70;;;2.00;;
65393;SDS011;52002;49.760;6.512;2023-08-17T01:23:14;2.10;;;1.70;;
65393;SDS011;52002;49.760;6.512;2023-08-17T01:25:40;5.00;;;1.50;;
65393;SDS011;52002;49.760;6.512;2023-08-17T01:28:05;1.40;;;1.30;;
65393;SDS011;52002;49.760;6.512;2023-08-17T01:30:33;2.70;;;1.50;;
65393;SDS011;52002;49.760;6.512;2023-08-17T01:33:31;1.00;;;1.00;;
65393;SDS011;52002;49.760;6.512;2023-08-17T01:36:13;2.20;;;1.30;;
65393;SDS011;52002;49.760;6.512;2023-08-17T01:38:46;5.10;;;1.90;;
65393;SDS011;52002;49.760;6.512;2023-08-17T01:41:16;1.80;;;1.30;;
65393;SDS011;52002;49.760;6.512;2023-08-17T01:43:43;5.80;;;1.60;;
65393;SDS011;52002;49.760;6.512;2023-08-17T01:46:14;3.20;;;1.20;;
65393;SDS011;52002;49.760;6.512;2023-08-17T01:48:41;3.30;;;1.40;;
65393;SDS011;52002;49.760;6.512;2023-08-17T01:51:07;2.90;;;1.30;;
65393;SDS011;52002;49.760;6.512;2023-08-17T01:53:32;4.70;;;1.70;;
65393;SDS011;52002;49.760;6.512;2023-08-17T01:55:58;1.50;;;1.20;;
65393;SDS011;52002;49.760;6.512;2023-08-17T01:58:23;3.30;;;1.50;;
65393;SDS011;52002;49.760;6.512;2023-08-17T02:00:48;3.10;;;1.40;;
65393;SDS011;52002;49.760;6.512;2023-08-17T02:03:14;1.10;;;1.10;;
65393;SDS011;52002;49.760;6.512;2023-08-17T02:05:43;4.70;;;1.50;;
65393;SDS011;52002;49.760;6.512;2023-08-17T02:08:11;2.80;;;1.00;;
65393;SDS011;52002;49.760;6.512;2023-08-17T02:10:37;3.00;;;1.30;;
65393;SDS011;52002;49.760;6.512;2023-08-17T02:13:03;2.70;;;1.40;;
65393;SDS011;52002;49.760;6.512;2023-08-17T02:15:29;2.70;;;1.90;;
65393;SDS011;52002;49.760;6.512;2023-08-17T02:17:54;16.00;;;1.50;;
65393;SDS011;52002;49.760;6.512;2023-08-17T02:20:20;3.40;;;1.60;;
65393;SDS011;52002;49.760;6.512;2023-08-17T02:22:45;1.80;;;1.50;;
65393;SDS011;52002;49.760;6.512;2023-08-17T02:25:10;4.40;;;1.90;;
65393;SDS011;52002;49.760;6.512;2023-08-17T02:27:36;6.40;;;1.90;;
65393;SDS011;52002;49.760;6.512;2023-08-17T02:30:01;3.40;;;2.40;;
65393;SDS011;52002;49.760;6.512;2023-08-17T02:32:28;5.80;;;2.20;;
65393;SDS011;52002;49.760;6.512;2023-08-17T02:34:54;3.60;;;1.80;;
65393;SDS011;52002;49.760;6.512;2023-08-17T02:37:19;3.60;;;2.10;;
65393;SDS011;52002;49.760;6.512;2023-08-17T02:39:44;8.90;;;2.00;;
65393;SDS011;52002;49.760;6.512;2023-08-17T02:42:10;3.90;;;1.60;;
65393;SDS011;52002;49.760;6.512;2023-08-17T02:44:35;4.80;;;1.70;;
65393;SDS011;52002;49.760;6.512;2023-08-17T02:47:00;1.90;;;1.40;;
65393;SDS011;52002;49.760;6.512;2023-08-17T02:49:26;1.60;;;1.40;;
65393;SDS011;52002;49.760;6.512;2023-08-17T02:51:51;1.50;;;1.30;;
65393;SDS011;52002;49.760;6.512;2023-08-17T02:54:16;4.90;;;1.50;;
65393;SDS011;52002;49.760;6.512;2023-08-17T02:56:42;2.00;;;1.40;;
65393;SDS011;52002;49.760;6.512;2023-08-17T02:59:07;2.80;;;1.30;;
65393;SDS011;52002;49.760;6.512;2023-08-17T03:01:32;1.50;;;1.10;;
65393;SDS011;52002;49.760;6.512;2023-08-17T03:03:58;1.10;;;1.00;;
65393;SDS011;52002;49.760;6.512;2023-08-17T03:06:23;1.90;;;1.30;;
65393;SDS011;52002;49.760;6.512;2023-08-17T03:08:48;3.40;;;1.10;;
65393;SDS011;52002;49.760;6.512;2023-08-17T03:11:13;2.50;;;0.90;;
65393;SDS011;52002;49.760;6.512;2023-08-17T03:13:39;1.00;;;0.90;;
65393;SDS011;52002;49.760;6.512;2023-08-17T03:16:04;1.20;;;1.10;;
65393;SDS011;52002;49.760;6.512;2023-08-17T03:18:29;2.60;;;1.20;;
65393;SDS011;52002;49.760;6.512;2023-08-17T03:20:55;1.40;;;1.30;;
65393;SDS011;52002;49.760;6.512;2023-08-17T03:23:20;4.90;;;1.40;;
65393;SDS011;52002;49.760;6.512;2023-08-17T03:25:46;1.70;;;1.30;;
65393;SDS011;52002;49.760;6.512;2023-08-17T03:28:11;1.80;;;1.40;;
65393;SDS011;52002;49.760;6.512;2023-08-17T03:30:37;6.50;;;1.80;;
65393;SDS011;52002;49.760;6.512;2023-08-17T03:33:02;3.70;;;1.70;;
65393;SDS011;52002;49.760;6.512;2023-08-17T03:35:28;2.00;;;1.80;;
65393;SDS011;52002;49.760;6.512;2023-08-17T03:37:53;7.00;;;1.90;;
65393;SDS011;52002;49.760;6.512;2023-08-17T03:40:18;3.50;;;1.90;;
65393;SDS011;52002;49.760;6.512;2023-08-17T03:42:44;1.90;;;1.60;;
65393;SDS011;52002;49.760;6.512;2023-08-17T03:45:09;8.00;;;1.80;;
65393;SDS011;52002;49.760;6.512;2023-08-17T03:47:34;4.30;;;1.80;;
65393;SDS011;52002;49.760;6.512;2023-08-17T03:50:00;2.80;;;1.80;;
65393;SDS011;52002;49.760;6.512;2023-08-17T03:52:25;2.50;;;1.70;;
65393;SDS011;52002;49.760;6.512;2023-08-17T03:54:51;2.40;;;1.40;;
65393;SDS011;52002;49.760;6.512;2023-08-17T03:57:16;1.80;;;1.50;;
65393;SDS011;52002;49.760;6.512;2023-08-17T03:59:41;5.10;;;1.60;;
65393;SDS011;52002;49.760;6.512;2023-08-17T04:02:06;2.10;;;1.70;;
65393;SDS011;52002;49.760;6.512;2023-08-17T04:04:32;4.00;;;1.60;;
65393;SDS011;52002;49.760;6.512;2023-08-17T04:06:57;3.70;;;1.60;;
65393;SDS011;52002;49.760;6.512;2023-08-17T04:09:23;1.80;;;1.70;;
65393;SDS011;52002;49.760;6.512;2023-08-17T04:11:48;3.10;;;1.70;;
65393;SDS011;52002;49.760;6.512;2023-08-17T04:14:13;4.60;;;2.00;;
65393;SDS011;52002;49.760;6.512;2023-08-17T04:16:39;9.70;;;4.70;;
65393;SDS011;52002;49.760;6.512;2023-08-17T04:19:05;7.20;;;2.70;;
65393;SDS011;52002;49.760;6.512;2023-08-17T04:21:30;5.40;;;2.00;;
65393;SDS011;52002;49.760;6.512;2023-08-17T04:23:58;1.90;;;1.80;;
65393;SDS011;52002;49.760;6.512;2023-08-17T04:26:23;1.50;;;1.40;;
65393;SDS011;52002;49.760;6.512;2023-08-17T04:28:49;2.40;;;1.60;;
65393;SDS011;52002;49.760;6.512;2023-08-17T04:31:15;2.40;;;1.60;;
65393;SDS011;52002;49.760;6.512;2023-08-17T04:33:42;2.90;;;1.60;;
65393;SDS011;52002;49.760;6.512;2023-08-17T04:36:07;10.40;;;1.80;;
65393;SDS011;52002;49.760;6.512;2023-08-17T04:38:33;2.60;;;1.80;;
65393;SDS011;52002;49.760;6.512;2023-08-17T04:40:58;2.30;;;1.50;;
65393;SDS011;52002;49.760;6.512;2023-08-17T04:43:23;3.80;;;1.50;;
65393;SDS011;52002;49.760;6.512;2023-08-17T04:45:49;7.90;;;1.50;;
65393;SDS011;52002;49.760;6.512;2023-08-17T04:48:14;2.80;;;1.70;;
65393;SDS011;52002;49.760;6.512;2023-08-17T04:50:39;2.00;;;1.70;;
65393;SDS011;52002;49.760;6.512;2023-08-17T04:53:05;3.10;;;1.40;;
65393;SDS011;52002;49.760;6.512;2023-08-17T04:55:30;2.10;;;1.60;;
65393;SDS011;52002;49.760;6.512;2023-08-17T04:57:57;11.90;;;2.00;;
65393;SDS011;52002;49.760;6.512;2023-08-17T05:00:22;3.90;;;1.70;;
65393;SDS011;52002;49.760;6.512;2023-08-17T05:02:53;4.60;;;2.10;;
65393;SDS011;52002;49.760;6.512;2023-08-17T05:05:19;6.40;;;1.80;;
65393;SDS011;52002;49.760;6.512;2023-08-17T05:07:45;5.10;;;2.10;;
65393;SDS011;52002;49.760;6.512;2023-08-17T05:10:10;5.90;;;2.10;;
65393;SDS011;52002;49.760;6.512;2023-08-17T05:12:36;5.20;;;3.20;;
65393;SDS011;52002;49.760;6.512;2023-08-17T05:15:01;2.50;;;2.20;;
65393;SDS011;52002;49.760;6.512;2023-08-17T05:17:26;3.70;;;1.90;;
65393;SDS011;52002;49.760;6.512;2023-08-17T05:19:52;3.30;;;1.90;;
65393;SDS011;52002;49.760;6.512;2023-08-17T05:22:17;3.60;;;2.30;;
65393;SDS011;52002;49.760;6.512;2023-08-17T05:24:42;5.00;;;2.10;;
65393;SDS011;52002;49.760;6.512;2023-08-17T05:27:08;3.90;;;2.10;;
65393;SDS011;52002;49.760;6.512;2023-08-17T05:29:33;6.90;;;2.40;;
65393;SDS011;52002;49.760;6.512;2023-08-17T05:31:58;4.70;;;1.80;;
65393;SDS011;52002;49.760;6.512;2023-08-17T05:34:24;4.30;;;1.90;;
65393;SDS011;52002;49.760;6.512;2023-08-17T05:36:49;4.20;;;2.10;;
65393;SDS011;52002;49.760;6.512;2023-08-17T05:39:15;5.20;;;2.10;;
65393;SDS011;52002;49.760;6.512;2023-08-17T05:41:40;2.60;;;2.10;;
65393;SDS011;52002;49.760;6.512;2023-08-17T05:44:06;7.50;;;2.00;;
65393;SDS011;52002;49.760;6.512;2023-08-17T05:46:34;2.30;;;2.00;;
65393;SDS011;52002;49.760;6.512;2023-08-17T05:49:01;3.00;;;2.40;;
65393;SDS011;52002;49.760;6.512;2023-08-17T05:51:27;3.50;;;1.90;;
65393;SDS011;52002;49.760;6.512;2023-08-17T05:53:52;7.30;;;2.20;;
65393;SDS011;52002;49.760;6.512;2023-08-17T05:56:17;5.30;;;2.10;;
65393;SDS011;52002;49.760;6.512;2023-08-17T05:58:43;6.80;;;2.80;;
65393;SDS011;52002;49.760;6.512;2023-08-17T06:01:09;6.60;;;2.10;;
65393;SDS011;52002;49.760;6.512;2023-08-17T06:03:35;3.00;;;2.00;;
65393;SDS011;52002;49.760;6.512;2023-08-17T06:06:02;5.00;;;2.50;;
65393;SDS011;52002;49.760;6.512;2023-08-17T06:08:28;3.60;;;1.80;;
65393;SDS011;52002;49.760;6.512;2023-08-17T06:10:54;3.20;;;2.00;;
65393;SDS011;52002;49.760;6.512;2023-08-17T06:13:20;3.30;;;1.80;;
65393;SDS011;52002;49.760;6.512;2023-08-17T06:15:45;4.40;;;1.50;;
65393;SDS011;52002;49.760;6.512;2023-08-17T06:18:10;3.00;;;1.70;;
65393;SDS011;52002;49.760;6.512;2023-08-17T06:20:36;1.90;;;1.50;;
65393;SDS011;52002;49.760;6.512;2023-08-17T06:23:01;2.70;;;1.70;;
65393;SDS011;52002;49.760;6.512;2023-08-17T06:25:26;2.30;;;1.60;;
65393;SDS011;52002;49.760;6.512;2023-08-17T06:27:52;2.90;;;1.30;;
65393;SDS011;52002;49.760;6.512;2023-08-17T06:30:17;5.50;;;1.50;;
65393;SDS011;52002;49.760;6.512;2023-08-17T06:32:43;5.70;;;1.40;;
65393;SDS011;52002;49.760;6.512;2023-08-17T06:35:08;3.50;;;1.80;;
65393;SDS011;52002;49.760;6.512;2023-08-17T06:37:34;2.40;;;1.50;;
65393;SDS011;52002;49.760;6.512;2023-08-17T06:39:59;5.60;;;1.80;;
65393;SDS011;52002;49.760;6.512;2023-08-17T06:42:25;1.80;;;1.60;;
65393;SDS011;52002;49.760;6.512;2023-08-17T06:44:50;3.00;;;1.50;;
65393;SDS011;52002;49.760;6.512;2023-08-17T06:47:15;1.90;;;1.20;;
65393;SDS011;52002;49.760;6.512;2023-08-17T06:49:41;1.50;;;1.20;;
65393;SDS011;52002;49.760;6.512;2023-08-17T06:52:06;1.90;;;1.50;;
65393;SDS011;52002;49.760;6.512;2023-08-17T06:54:31;2.60;;;1.30;;
65393;SDS011;52002;49.760;6.512;2023-08-17T06:56:57;7.00;;;1.80;;
65393;SDS011;52002;49.760;6.512;2023-08-17T06:59:23;4.10;;;1.70;;
65393;SDS011;52002;49.760;6.512;2023-08-17T07:01:48;3.30;;;1.60;;
65393;SDS011;52002;49.760;6.512;2023-08-17T07:04:13;3.70;;;1.60;;
65393;SDS011;52002;49.760;6.512;2023-08-17T07:06:39;1.40;;;1.30;;
65393;SDS011;52002;49.760;6.512;2023-08-17T07:09:06;3.60;;;1.70;;
65393;SDS011;52002;49.760;6.512;2023-08-17T07:11:31;4.30;;;1.70;;
65393;SDS011;52002;49.760;6.512;2023-08-17T07:13:57;1.70;;;1.60;;
65393;SDS011;52002;49.760;6.512;2023-08-17T07:16:22;2.50;;;1.70;;
65393;SDS011;52002;49.760;6.512;2023-08-17T07:18:48;2.70;;;1.80;;
65393;SDS011;52002;49.760;6.512;2023-08-17T07:21:13;5.70;;;1.60;;
65393;SDS011;52002;49.760;6.512;2023-08-17T07:23:38;2.00;;;1.50;;
65393;SDS011;52002;49.760;6.512;2023-08-17T07:26:04;1.60;;;1.50;;
65393;SDS011;52002;49.760;6.512;2023-08-17T07:28:29;1.70;;;1.40;;
65393;SDS011;52002;49.760;6.512;2023-08-17T07:30:54;2.20;;;1.90;;
65393;SDS011;52002;49.760;6.512;2023-08-17T07:33:19;6.10;;;1.60;;
65393;SDS011;52002;49.760;6.512;2023-08-17T07:35:45;4.30;;;1.60;;
65393;SDS011;52002;49.760;6.512;2023-08-17T07:38:10;1.60;;;1.50;;
65393;SDS011;52002;49.760;6.512;2023-08-17T07:40:35;2.70;;;1.60;;
65393;SDS011;52002;49.760;6.512;2023-08-17T07:43:01;5.80;;;1.80;;
65393;SDS011;52002;49.760;6.512;2023-08-17T07:45:27;3.50;;;1.80;;
65393;SDS011;52002;49.760;6.512;2023-08-17T07:47:52;3.80;;;1.90;;
65393;SDS011;52002;49.760;6.512;2023-08-17T07:50:18;3.60;;;1.80;;
65393;SDS011;52002;49.760;6.512;2023-08-17T07:52:43;3.80;;;1.90;;
65393;SDS011;52002;49.760;6.512;2023-08-17T07:55:08;2.80;;;2.10;;
65393;SDS011;52002;49.760;6.512;2023-08-17T07:57:34;3.20;;;2.40;;
65393;SDS011;52002;49.760;6.512;2023-08-17T07:59:59;8.10;;;2.40;;
65393;SDS011;52002;49.760;6.512;2023-08-17T08:02:24;4.00;;;2.10;;
65393;SDS011;52002;49.760;6.512;2023-08-17T08:04:50;2.30;;;1.80;;
65393;SDS011;52002;49.760;6.512;2023-08-17T08:07:15;2.90;;;2.20;;
65393;SDS011;52002;49.760;6.512;2023-08-17T08:09:40;2.30;;;2.10;;
65393;SDS011;52002;49.760;6.512;2023-08-17T08:12:06;3.30;;;2.30;;
65393;SDS011;52002;49.760;6.512;2023-08-17T08:14:33;3.20;;;2.10;;
65393;SDS011;52002;49.760;6.512;2023-08-17T08:16:59;2.50;;;2.30;;
65393;SDS011;52002;49.760;6.512;2023-08-17T08:19:24;2.80;;;2.00;;
65393;SDS011;52002;49.760;6.512;2023-08-17T08:21:49;2.60;;;2.10;;
65393;SDS011;52002;49.760;6.512;2023-08-17T08:24:15;3.50;;;2.10;;
65393;SDS011;52002;49.760;6.512;2023-08-17T08:26:41;2.50;;;2.00;;
65393;SDS011;52002;49.760;6.512;2023-08-17T08:29:06;3.00;;;1.70;;
65393;SDS011;52002;49.760;6.512;2023-08-17T08:31:32;3.50;;;1.90;;
65393;SDS011;52002;49.760;6.512;2023-08-17T08:33:57;2.40;;;1.90;;
65393;SDS011;52002;49.760;6.512;2023-08-17T08:36:24;3.00;;;1.90;;
65393;SDS011;52002;49.760;6.512;2023-08-17T08:38:49;3.60;;;2.10;;
65393;SDS011;52002;49.760;6.512;2023-08-17T08:41:16;3.30;;;1.70;;
65393;SDS011;52002;49.760;6.512;2023-08-17T08:43:42;2.10;;;1.80;;
65393;SDS011;52002;49.760;6.512;2023-08-17T08:46:08;2.60;;;2.30;;
65393;SDS011;52002;49.760;6.512;2023-08-17T08:48:34;2.30;;;2.00;;
65393;SDS011;52002;49.760;6.512;2023-08-17T08:51:03;2.20;;;2.00;;
65393;SDS011;52002;49.760;6.512;2023-08-17T08:53:39;5.30;;;2.40;;
65393;SDS011;52002;49.760;6.512;2023-08-17T08:56:13;2.70;;;2.10;;
65393;SDS011;52002;49.760;6.512;2023-08-17T08:58:44;2.60;;;1.80;;
65393;SDS011;52002;49.760;6.512;2023-08-17T09:01:11;8.00;;;2.10;;
65393;SDS011;52002;49.760;6.512;2023-08-17T09:03:37;3.50;;;2.40;;
65393;SDS011;52002;49.760;6.512;2023-08-17T09:06:04;3.30;;;2.20;;
65393;SDS011;52002;49.760;6.512;2023-08-17T09:08:30;2.60;;;2.30;;
65393;SDS011;52002;49.760;6.512;2023-08-17T09:10:56;2.30;;;2.10;;
65393;SDS011;52002;49.760;6.512;2023-08-17T09:13:21;2.50;;;2.30;;
65393;SDS011;52002;49.760;6.512;2023-08-17T09:15:47;4.20;;;2.30;;
65393;SDS011;52002;49.760;6.512;2023-08-17T09:18:14;5.40;;;2.50;;
65393;SDS011;52002;49.760;6.512;2023-08-17T09:20:46;2.10;;;1.90;;
65393;SDS011;52002;49.760;6.512;2023-08-17T09:23:13;4.90;;;2.70;;
65393;SDS011;52002;49.760;6.512;2023-08-17T09:25:41;4.80;;;2.60;;
65393;SDS011;52002;49.760;6.512;2023-08-17T09:28:11;7.20;;;2.90;;
65393;SDS011;52002;49.760;6.512;2023-08-17T09:30:49;2.40;;;2.20;;
65393;SDS011;52002;49.760;6.512;2023-08-17T09:33:15;4.70;;;2.60;;
65393;SDS011;52002;49.760;6.512;2023-08-17T09:35:41;3.20;;;2.90;;
65393;SDS011;52002;49.760;6.512;2023-08-17T09:38:07;3.50;;;3.10;;
65393;SDS011;52002;49.760;6.512;2023-08-17T09:40:33;4.70;;;2.80;;
65393;SDS011;52002;49.760;6.512;2023-08-17T09:42:58;3.70;;;2.80;;
65393;SDS011;52002;49.760;6.512;2023-08-17T09:45:24;4.20;;;3.00;;
65393;SDS011;52002;49.760;6.512;2023-08-17T09:47:50;4.30;;;3.00;;
65393;SDS011;52002;49.760;6.512;2023-08-17T09:50:15;4.00;;;3.00;;
65393;SDS011;52002;49.760;6.512;2023-08-17T09:52:41;4.00;;;2.70;;
65393;SDS011;52002;49.760;6.512;2023-08-17T09:55:07;3.90;;;2.80;;
65393;SDS011;52002;49.760;6.512;2023-08-17T09:57:32;4.50;;;3.00;;
65393;SDS011;52002;49.760;6.512;2023-08-17T09:59:59;4.80;;;3.00;;
65393;SDS011;52002;49.760;6.512;2023-08-17T10:02:24;5.90;;;3.10;;
65393;SDS011;52002;49.760;6.512;2023-08-17T10:04:52;7.00;;;2.90;;
65393;SDS011;52002;49.760;6.512;2023-08-17T10:07:19;3.80;;;2.80;;
65393;SDS011;52002;49.760;6.512;2023-08-17T10:09:47;4.30;;;3.00;;
65393;SDS011;52002;49.760;6.512;2023-08-17T10:12:21;3.70;;;2.90;;
65393;SDS011;52002;49.760;6.512;2023-08-17T10:14:55;5.10;;;3.00;;
65393;SDS011;52002;49.760;6.512;2023-08-17T10:17:29;5.30;;;3.20;;
65393;SDS011;52002;49.760;6.512;2023-08-17T10:19:59;3.90;;;3.00;;
65393;SDS011;52002;49.760;6.512;2023-08-17T10:25:11;3.10;;;2.80;;
65393;SDS011;52002;49.760;6.512;2023-08-17T10:27:38;3.10;;;2.70;;
65393;SDS011;52002;49.760;6.512;2023-08-17T10:30:06;3.90;;;3.20;;
65393;SDS011;52002;49.760;6.512;2023-08-17T10:32:34;3.10;;;2.80;;
65393;SDS011;52002;49.760;6.512;2023-08-17T10:35:00;7.80;;;3.40;;
65393;SDS011;52002;49.760;6.512;2023-08-17T10:37:27;4.10;;;2.90;;
65393;SDS011;52002;49.760;6.512;2023-08-17T10:39:54;3.80;;;2.70;;
65393;SDS011;52002;49.760;6.512;2023-08-17T10:42:29;3.90;;;2.80;;
65393;SDS011;52002;49.760;6.512;2023-08-17T10:44:57;3.40;;;2.70;;
65393;SDS011;52002;49.760;6.512;2023-08-17T10:47:23;4.60;;;3.10;;
65393;SDS011;52002;49.760;6.512;2023-08-17T10:50:06;3.20;;;2.90;;
65393;SDS011;52002;49.760;6.512;2023-08-17T10:52:47;5.20;;;2.70;;
65393;SDS011;52002;49.760;6.512;2023-08-17T10:55:14;4.00;;;3.10;;
65393;SDS011;52002;49.760;6.512;2023-08-17T10:57:40;3.30;;;3.00;;
65393;SDS011;52002;49.760;6.512;2023-08-17T11:00:17;4.30;;;2.80;;
65393;SDS011;52002;49.760;6.512;2023-08-17T11:03:01;4.60;;;3.00;;
65393;SDS011;52002;49.760;6.512;2023-08-17T11:08:06;4.90;;;2.90;;
65393;SDS011;52002;49.760;6.512;2023-08-17T11:10:34;9.80;;;4.80;;
65393;SDS011;52002;49.760;6.512;2023-08-17T11:13:00;3.20;;;2.90;;
65393;SDS011;52002;49.760;6.512;2023-08-17T11:15:36;3.10;;;2.80;;
65393;SDS011;52002;49.760;6.512;2023-08-17T11:18:07;3.90;;;2.80;;
65393;SDS011;52002;49.760;6.512;2023-08-17T11:20:37;3.00;;;2.70;;
65393;SDS011;52002;49.760;6.512;2023-08-17T11:23:04;4.80;;;3.20;;
65393;SDS011;52002;49.760;6.512;2023-08-17T11:25:31;3.30;;;2.90;;
65393;SDS011;52002;49.760;6.512;2023-08-17T11:27:57;4.40;;;2.90;;
65393;SDS011;52002;49.760;6.512;2023-08-17T11:30:24;7.30;;;3.00;;
65393;SDS011;52002;49.760;6.512;2023-08-17T11:32:51;3.40;;;2.80;;
65393;SDS011;52002;49.760;6.512;2023-08-17T11:35:18;3.30;;;3.00;;
65393;SDS011;52002;49.760;6.512;2023-08-17T11:37:44;3.70;;;2.90;;
65393;SDS011;52002;49.760;6.512;2023-08-17T11:40:13;5.10;;;3.00;;
65393;SDS011;52002;49.760;6.512;2023-08-17T11:42:39;3.70;;;3.00;;
65393;SDS011;52002;49.760;6.512;2023-08-17T11:45:06;3.20;;;2.80;;
65393;SDS011;52002;49.760;6.512;2023-08-17T11:47:34;3.00;;;2.70;;
65393;SDS011;52002;49.760;6.512;2023-08-17T11:50:04;9.40;;;2.70;;
65393;SDS011;52002;49.760;6.512;2023-08-17T11:52:31;2.60;;;2.40;;
65393;SDS011;52002;49.760;6.512;2023-08-17T11:55:03;2.90;;;2.70;;
65393;SDS011;52002;49.760;6.512;2023-08-17T11:57:31;3.20;;;2.60;;
65393;SDS011;52002;49.760;6.512;2023-08-17T11:59:57;8.10;;;3.20;;
65393;SDS011;52002;49.760;6.512;2023-08-17T12:02:24;4.60;;;2.10;;
65393;SDS011;52002;49.760;6.512;2023-08-17T12:04:51;3.20;;;2.40;;
65393;SDS011;52002;49.760;6.512;2023-08-17T12:07:18;2.90;;;2.30;;
65393;SDS011;52002;49.760;6.512;2023-08-17T12:09:44;2.80;;;2.20;;
65393;SDS011;52002;49.760;6.512;2023-08-17T12:12:11;2.80;;;2.10;;
65393;SDS011;52002;49.760;6.512;2023-08-17T12:14:37;3.10;;;2.20;;
65393;SDS011;52002;49.760;6.512;2023-08-17T12:17:07;3.80;;;2.40;;
65393;SDS011;52002;49.760;6.512;2023-08-17T12:22:03;4.20;;;2.30;;
65393;SDS011;52002;49.760;6.512;2023-08-17T12:24:29;3.00;;;2.50;;
65393;SDS011;52002;49.760;6.512;2023-08-17T12:26:56;2.30;;;2.10;;
65393;SDS011;52002;49.760;6.512;2023-08-17T12:29:22;4.90;;;2.40;;
65393;SDS011;52002;49.760;6.512;2023-08-17T12:31:47;5.70;;;2.10;;
65393;SDS011;52002;49.760;6.512;2023-08-17T12:34:12;3.20;;;2.10;;
65393;SDS011;52002;49.760;6.512;2023-08-17T12:36:38;2.80;;;2.40;;
65393;SDS011;52002;49.760;6.512;2023-08-17T13:44:39;2.30;;;2.10;;
65393;SDS011;52002;49.760;6.512;2023-08-17T13:47:04;2.40;;;2.20;;
65393;SDS011;52002;49.760;6.512;2023-08-17T13:49:30;2.40;;;2.10;;
65393;SDS011;52002;49.760;6.512;2023-08-17T13:51:55;4.70;;;2.10;;
65393;SDS011;52002;49.760;6.512;2023-08-17T13:54:21;2.60;;;2.20;;
65393;SDS011;52002;49.760;6.512;2023-08-17T13:56:47;1.80;;;1.70;;
65393;SDS011;52002;49.760;6.512;2023-08-17T13:59:13;3.00;;;2.00;;
65393;SDS011;52002;49.760;6.512;2023-08-17T14:01:38;3.00;;;2.00;;
65393;SDS011;52002;49.760;6.512;2023-08-17T14:04:03;6.20;;;2.00;;
65393;SDS011;52002;49.760;6.512;2023-08-17T14:06:36;2.50;;;1.70;;
65393;SDS011;52002;49.760;6.512;2023-08-17T14:09:01;2.40;;;2.00;;
65393;SDS011;52002;49.760;6.512;2023-08-17T14:11:27;5.90;;;1.90;;
65393;SDS011;52002;49.760;6.512;2023-08-17T14:13:53;3.60;;;1.70;;
65393;SDS011;52002;49.760;6.512;2023-08-17T14:16:18;2.20;;;1.80;;
65393;SDS011;52002;49.760;6.512;2023-08-17T14:18:43;2.70;;;2.00;;
65393;SDS011;52002;49.760;6.512;2023-08-17T14:21:09;3.80;;;2.30;;
65393;SDS011;52002;49.760;6.512;2023-08-17T14:23:34;2.50;;;2.00;;
65393;SDS011;52002;49.760;6.512;2023-08-17T14:25:59;2.50;;;2.00;;
65393;SDS011;52002;49.760;6.512;2023-08-17T14:28:24;2.00;;;1.80;;
65393;SDS011;52002;49.760;6.512;2023-08-17T14:30:51;4.10;;;2.00;;
65393;SDS011;52002;49.760;6.512;2023-08-17T14:33:16;8.60;;;2.20;;
65393;SDS011;52002;49.760;6.512;2023-08-17T14:35:42;1.70;;;1.60;;
65393;SDS011;52002;49.760;6.512;2023-08-17T14:38:07;3.10;;;1.80;;
65393;SDS011;52002;49.760;6.512;2023-08-17T14:40:34;2.30;;;1.70;;
65393;SDS011;52002;49.760;6.512;2023-08-17T14:43:00;2.10;;;1.80;;
65393;SDS011;52002;49.760;6.512;2023-08-17T14:45:26;1.90;;;1.70;;
65393;SDS011;52002;49.760;6.512;2023-08-17T14:47:51;4.00;;;2.50;;
65393;SDS011;52002;49.760;6.512;2023-08-17T14:50:16;2.90;;;1.80;;
65393;SDS011;52002;49.760;6.512;2023-08-17T14:52:42;2.60;;;2.20;;
65393;SDS011;52002;49.760;6.512;2023-08-17T14:55:07;2.50;;;1.70;;
65393;SDS011;52002;49.760;6.512;2023-08-17T14:57:34;3.20;;;1.90;;
65393;SDS011;52002;49.760;6.512;2023-08-17T14:59:59;6.20;;;1.90;;
65393;SDS011;52002;49.760;6.512;2023-08-17T15:02:24;2.10;;;1.70;;
65393;SDS011;52002;49.760;6.512;2023-08-17T15:04:50;2.80;;;1.60;;
65393;SDS011;52002;49.760;6.512;2023-08-17T15:07:15;2.70;;;1.80;;
65393;SDS011;52002;49.760;6.512;2023-08-17T15:09:41;1.60;;;1.50;;
65393;SDS011;52002;49.760;6.512;2023-08-17T15:12:06;4.30;;;1.80;;
65393;SDS011;52002;49.760;6.512;2023-08-17T15:14:32;1.60;;;1.50;;
65393;SDS011;52002;49.760;6.512;2023-08-17T15:16:57;2.00;;;1.80;;
65393;SDS011;52002;49.760;6.512;2023-08-17T15:19:23;1.70;;;1.60;;
65393;SDS011;52002;49.760;6.512;2023-08-17T15:21:48;5.00;;;1.60;;
65393;SDS011;52002;49.760;6.512;2023-08-17T15:24:13;1.80;;;1.70;;
65393;SDS011;52002;49.760;6.512;2023-08-17T15:26:39;1.90;;;1.70;;
65393;SDS011;52002;49.760;6.512;2023-08-17T15:29:05;4.20;;;1.90;;
65393;SDS011;52002;49.760;6.512;2023-08-17T15:31:31;1.70;;;1.60;;
65393;SDS011;52002;49.760;6.512;2023-08-17T15:33:56;4.20;;;2.00;;
65393;SDS011;52002;49.760;6.512;2023-08-17T15:36:21;2.80;;;1.90;;
65393;SDS011;52002;49.760;6.512;2023-08-17T15:38:48;1.80;;;1.70;;
65393;SDS011;52002;49.760;6.512;2023-08-17T15:41:15;1.70;;;1.60;;
65393;SDS011;52002;49.760;6.512;2023-08-17T15:43:40;2.60;;;1.60;;
65393;SDS011;52002;49.760;6.512;2023-08-17T15:46:05;2.00;;;1.90;;
65393;SDS011;52002;49.760;6.512;2023-08-17T15:48:31;3.50;;;1.70;;
65393;SDS011;52002;49.760;6.512;2023-08-17T15:50:56;4.40;;;1.50;;
65393;SDS011;52002;49.760;6.512;2023-08-17T15:53:22;4.50;;;2.00;;
65393;SDS011;52002;49.760;6.512;2023-08-17T15:55:47;2.20;;;1.90;;
65393;SDS011;52002;49.760;6.512;2023-08-17T15:58:12;2.10;;;1.60;;
65393;SDS011;52002;49.760;6.512;2023-08-17T16:00:38;1.80;;;1.60;;
65393;SDS011;52002;49.760;6.512;2023-08-17T16:03:03;2.10;;;1.70;;